createdAt,value
2023-05-05T00:01:09.287Z,86.10
2023-05-05T00:03:36.380Z,85.90
2023-05-05T00:06:03.182Z,85.30
2023-05-05T00:08:29.976Z,84.81
2023-05-05T00:10:57.630Z,85.36
2023-05-05T00:13:24.626Z,85.30
2023-05-05T00:15:52.124Z,85.67
2023-05-05T00:18:18.830Z,85.76
2023-05-05T00:20:47.146Z,84.83
2023-05-05T00:23:17.294Z,84.92
2023-05-05T00:25:43.970Z,85.33
2023-05-05T00:28:10.621Z,85.98
2023-05-05T00:30:37.577Z,85.84
2023-05-05T00:33:04.381Z,85.60
2023-05-05T00:35:31.189Z,84.69
2023-05-05T00:37:58.307Z,84.92
2023-05-05T00:40:25.329Z,84.96
2023-05-05T00:42:52.418Z,84.54
2023-05-05T00:45:20.164Z,83.01
2023-05-05T00:47:49.325Z,82.53
2023-05-05T00:50:26.834Z,83.40
2023-05-05T00:52:56.773Z,83.90
2023-05-05T00:55:23.541Z,84.16
2023-05-05T00:57:50.452Z,83.56
2023-05-05T01:00:17.918Z,83.62
2023-05-05T01:02:44.926Z,83.83
2023-05-05T01:05:13.252Z,85.44
2023-05-05T01:08:19.630Z,83.16
2023-05-05T01:10:49.132Z,82.50
2023-05-05T01:14:01.431Z,81.24
2023-05-05T01:16:29.375Z,80.61
2023-05-05T01:19:08.007Z,81.09
2023-05-05T01:21:46.982Z,81.36
2023-05-05T01:24:22.662Z,81.81
2023-05-05T01:27:07.777Z,82.35
2023-05-05T01:29:40.391Z,81.53
2023-05-05T01:32:11.158Z,81.69
2023-05-05T01:34:42.109Z,82.07
2023-05-05T01:37:18.607Z,83.24
2023-05-05T01:39:45.312Z,82.13
2023-05-05T01:42:15.176Z,82.52
2023-05-05T01:44:43.536Z,82.34
2023-05-05T01:47:15.107Z,82.45
2023-05-05T01:49:43.225Z,82.38
2023-05-05T01:52:09.886Z,82.09
2023-05-05T01:54:36.549Z,81.47
2023-05-05T01:57:04.844Z,81.29
2023-05-05T01:59:32.354Z,80.77
2023-05-05T02:02:00.285Z,80.89
2023-05-05T02:04:27.300Z,81.93
2023-05-05T02:06:54.194Z,82.32
2023-05-05T02:09:20.960Z,82.51
2023-05-05T02:11:47.645Z,82.86
2023-05-05T02:14:14.225Z,83.13
2023-05-05T02:16:41.354Z,83.13
2023-05-05T02:19:08.068Z,82.44
2023-05-05T02:21:34.880Z,82.01
2023-05-05T02:24:01.800Z,82.23
2023-05-05T02:26:28.510Z,81.88
2023-05-05T02:29:02.069Z,81.73
2023-05-05T02:31:28.897Z,81.54
2023-05-05T02:33:56.336Z,81.46
2023-05-05T02:36:23.567Z,82.32
2023-05-05T02:38:56.207Z,83.26
2023-05-05T02:41:22.914Z,84.15
2023-05-05T02:43:50.082Z,84.23
2023-05-05T02:46:17.707Z,82.74
2023-05-05T02:48:44.896Z,84.07
2023-05-05T02:51:11.628Z,83.30
2023-05-05T02:53:38.315Z,84.15
2023-05-05T02:56:22.505Z,83.28
2023-05-05T02:58:53.131Z,83.87
2023-05-05T03:01:53.348Z,84.28
2023-05-05T03:04:30.100Z,85.22
2023-05-05T03:06:58.862Z,84.86
2023-05-05T03:09:38.111Z,85.35
2023-05-05T03:12:06.936Z,84.85
2023-05-05T03:14:36.502Z,84.40
2023-05-05T03:17:03.405Z,84.23
2023-05-05T03:19:30.078Z,84.32
2023-05-05T03:21:56.699Z,85.55
2023-05-05T03:24:23.346Z,85.28
2023-05-05T03:26:50.032Z,84.41
2023-05-05T03:29:17.252Z,83.83
2023-05-05T03:31:44.056Z,85.12
2023-05-05T03:34:10.767Z,85.44
2023-05-05T03:36:38.194Z,86.26
2023-05-05T03:39:04.949Z,86.58
2023-05-05T03:41:31.631Z,85.68
2023-05-05T03:43:58.228Z,85.03
2023-05-05T03:46:25.092Z,85.43
2023-05-05T03:48:51.863Z,85.51
2023-05-05T03:51:18.541Z,84.56
2023-05-05T03:53:45.260Z,84.20
2023-05-05T03:56:11.946Z,84.61
2023-05-05T03:58:38.661Z,84.03
2023-05-05T04:01:05.443Z,85.38
2023-05-05T04:03:32.390Z,86.47
2023-05-05T04:05:59.261Z,85.87
2023-05-05T04:08:25.870Z,84.67
2023-05-05T04:10:52.640Z,83.59
2023-05-05T04:13:19.424Z,84.58
2023-05-05T04:15:46.579Z,84.28
2023-05-05T04:18:13.236Z,84.14
2023-05-05T04:20:39.892Z,85.41
2023-05-05T04:23:06.573Z,87.46
2023-05-05T04:25:33.316Z,85.83
2023-05-05T04:27:59.994Z,85.44
2023-05-05T04:30:26.780Z,87.37
2023-05-05T04:32:53.621Z,86.51
2023-05-05T04:35:20.461Z,85.42
2023-05-05T04:37:47.203Z,85.28
2023-05-05T04:40:13.889Z,84.94
2023-05-05T04:42:40.528Z,86.43
2023-05-05T04:45:08.575Z,85.08
2023-05-05T04:47:39.094Z,84.12
2023-05-05T04:50:07.295Z,83.47
2023-05-05T04:52:34.238Z,84.19
2023-05-05T04:55:01.303Z,83.72
2023-05-05T04:57:28.072Z,83.83
2023-05-05T04:59:54.794Z,84.09
2023-05-05T05:02:21.658Z,83.38
2023-05-05T05:04:48.404Z,82.32
2023-05-05T05:07:15.177Z,81.46
2023-05-05T05:09:41.905Z,80.61
2023-05-05T05:12:09.691Z,78.07
2023-05-05T05:14:39.457Z,79.12
2023-05-05T05:17:06.426Z,78.38
2023-05-05T05:19:33.113Z,77.75
2023-05-05T05:21:59.720Z,77.80
2023-05-05T05:24:26.514Z,78.35
2023-05-05T05:26:53.177Z,75.71
2023-05-05T05:29:20.457Z,76.24
2023-05-05T05:31:47.215Z,75.67
2023-05-05T05:34:13.832Z,75.62
2023-05-05T05:36:40.685Z,77.89
2023-05-05T05:39:07.406Z,76.96
2023-05-05T05:41:34.080Z,75.15
2023-05-05T05:44:00.760Z,73.73
2023-05-05T05:46:27.580Z,72.43
2023-05-05T05:48:54.403Z,76.03
2023-05-05T05:51:21.140Z,75.24
2023-05-05T05:53:47.941Z,73.36
2023-05-05T05:56:14.572Z,73.70
2023-05-05T05:58:42.419Z,73.03
2023-05-05T06:01:09.160Z,73.20
2023-05-05T06:03:36.229Z,72.89
2023-05-05T06:06:02.954Z,73.76
2023-05-05T06:08:29.631Z,74.04
2023-05-05T06:10:56.299Z,72.53
2023-05-05T06:13:23.062Z,72.50
2023-05-05T06:15:49.861Z,71.94
2023-05-05T06:18:16.692Z,72.29
2023-05-05T06:20:46.427Z,73.46
2023-05-05T06:23:13.149Z,72.41
2023-05-05T06:25:39.885Z,72.48
2023-05-05T06:28:07.275Z,70.60
2023-05-05T06:30:34.214Z,71.59
2023-05-05T06:33:00.967Z,70.07
2023-05-05T06:35:27.660Z,70.00
2023-05-05T06:37:54.418Z,70.55
2023-05-05T06:40:21.500Z,69.96
2023-05-05T06:42:48.192Z,68.50
2023-05-05T06:45:15.239Z,70.30
2023-05-05T06:47:42.413Z,70.15
2023-05-05T06:50:09.559Z,68.57
2023-05-05T06:52:36.457Z,68.28
2023-05-05T06:55:03.890Z,67.73
2023-05-05T06:57:30.593Z,66.44
2023-05-05T06:59:57.289Z,69.17
2023-05-05T07:02:25.982Z,68.76
2023-05-05T07:04:55.728Z,66.89
2023-05-05T07:07:22.694Z,67.13
2023-05-05T07:09:49.468Z,66.05
2023-05-05T07:12:16.105Z,64.70
2023-05-05T07:14:42.770Z,65.31
2023-05-05T07:17:09.405Z,65.59
2023-05-05T07:19:36.181Z,67.67
2023-05-05T07:22:02.794Z,66.00
2023-05-05T07:24:29.531Z,63.16
2023-05-05T07:26:56.244Z,61.96
2023-05-05T07:29:22.957Z,63.69
2023-05-05T07:31:49.721Z,64.68
2023-05-05T07:34:16.353Z,63.15
2023-05-05T07:36:43.065Z,60.76
2023-05-05T07:39:09.822Z,62.19
2023-05-05T07:41:36.545Z,59.72
2023-05-05T07:44:03.187Z,61.41
2023-05-05T07:46:29.941Z,62.84
2023-05-05T07:48:56.564Z,60.52
2023-05-05T07:51:23.218Z,59.49
2023-05-05T07:53:49.870Z,60.04
2023-05-05T07:56:16.507Z,59.07
2023-05-05T07:58:43.261Z,59.14
2023-05-05T08:01:11.332Z,58.35
2023-05-05T08:03:38.483Z,59.02
2023-05-05T08:06:10.343Z,59.81
2023-05-05T08:08:37.127Z,58.61
2023-05-05T08:11:03.952Z,59.16
2023-05-05T08:13:30.674Z,59.96
2023-05-05T08:15:57.461Z,60.58
2023-05-05T08:18:24.691Z,57.20
2023-05-05T08:20:52.007Z,59.11
2023-05-05T08:23:19.031Z,58.22
2023-05-05T08:25:45.715Z,59.73
2023-05-05T08:28:12.279Z,58.34
2023-05-05T08:30:39.238Z,58.18
2023-05-05T08:33:06.146Z,56.50
2023-05-05T08:35:32.862Z,55.43
2023-05-05T08:37:59.479Z,56.71
2023-05-05T08:40:29.876Z,54.88
2023-05-05T08:42:56.591Z,56.09
2023-05-05T08:45:23.256Z,54.47
2023-05-05T08:47:49.940Z,57.12
2023-05-05T08:50:16.597Z,53.87
2023-05-05T08:52:44.509Z,53.67
2023-05-05T08:55:24.488Z,52.50
2023-05-05T08:57:56.480Z,53.81
2023-05-05T09:00:23.554Z,52.65
2023-05-05T09:02:50.436Z,51.58
2023-05-05T09:05:17.442Z,53.65
2023-05-05T09:07:44.293Z,53.39
2023-05-05T09:10:11.603Z,52.48
2023-05-05T09:12:42.081Z,49.92
2023-05-05T09:15:13.274Z,50.89
2023-05-05T09:17:40.179Z,49.58
2023-05-05T09:20:11.202Z,51.77
2023-05-05T09:22:44.994Z,48.85
2023-05-05T09:25:15.682Z,50.18
2023-05-05T09:27:47.210Z,51.75
2023-05-05T09:30:31.997Z,50.07
2023-05-05T09:32:58.827Z,49.24
2023-05-05T09:35:26.399Z,46.70
2023-05-05T09:37:53.101Z,48.23
2023-05-05T09:40:21.353Z,49.95
2023-05-05T09:42:48.355Z,51.56
2023-05-05T09:45:18.077Z,51.40
2023-05-05T09:47:45.817Z,50.82
2023-05-05T09:50:15.915Z,50.90
2023-05-05T09:52:46.207Z,49.90
2023-05-05T09:55:19.565Z,49.11
2023-05-05T09:57:47.516Z,50.45
2023-05-05T10:00:14.735Z,50.76
2023-05-05T10:02:41.979Z,49.59
2023-05-05T10:05:13.433Z,48.82
2023-05-05T10:07:42.002Z,47.67
2023-05-05T10:10:13.369Z,47.13
2023-05-05T10:12:40.189Z,46.44
2023-05-05T10:15:07.928Z,44.09
2023-05-05T10:18:05.989Z,45.06
2023-05-05T10:20:33.855Z,46.53
2023-05-05T10:23:00.505Z,47.45
2023-05-05T10:25:33.533Z,47.83
2023-05-05T10:28:01.018Z,48.45
2023-05-05T10:30:31.505Z,48.19
2023-05-05T10:35:40.913Z,48.84
2023-05-05T10:38:08.669Z,50.44
2023-05-05T10:40:35.395Z,50.13
2023-05-05T10:43:02.021Z,49.28
2023-05-05T10:45:29.060Z,49.84
2023-05-05T10:47:57.257Z,50.48
2023-05-05T10:50:33.069Z,51.84
2023-05-05T10:53:20.884Z,52.20
2023-05-05T10:56:08.788Z,52.43
2023-05-05T10:58:55.356Z,50.08
2023-05-05T11:01:36.244Z,53.16
2023-05-05T11:04:21.907Z,51.77
2023-05-05T11:07:11.060Z,53.80
2023-05-05T11:09:57.186Z,52.64
2023-05-05T11:12:23.899Z,49.48
2023-05-05T11:15:27.518Z,51.72
2023-05-05T11:18:01.933Z,50.35
2023-05-05T11:20:36.061Z,49.77
2023-05-05T11:23:02.786Z,51.81
2023-05-05T11:25:36.157Z,50.37
2023-05-05T11:28:06.904Z,49.26
2023-05-05T11:30:33.862Z,48.12
2023-05-05T11:33:23.121Z,47.15
2023-05-05T11:35:59.042Z,48.12
2023-05-05T11:38:41.764Z,47.17
2023-05-05T11:41:32.000Z,49.85
2023-05-05T11:44:18.548Z,45.78
2023-05-05T11:46:51.175Z,47.64
2023-05-05T11:49:37.175Z,47.96
2023-05-05T11:52:04.557Z,48.53
2023-05-05T11:54:31.536Z,48.20
2023-05-05T11:56:59.326Z,47.35
2023-05-05T11:59:26.144Z,48.78
2023-05-05T12:01:52.831Z,48.28
2023-05-05T12:04:19.707Z,47.32
2023-05-05T12:06:46.422Z,49.43
2023-05-05T12:09:19.590Z,51.27
2023-05-05T12:11:49.673Z,50.63
2023-05-05T12:14:16.366Z,50.65
2023-05-05T12:17:01.406Z,50.11
2023-05-05T12:19:30.416Z,49.06
2023-05-05T12:21:57.197Z,51.69
2023-05-05T12:24:23.782Z,48.35
2023-05-05T12:26:50.651Z,48.60
2023-05-05T12:29:27.733Z,46.94
2023-05-05T12:31:54.605Z,46.60
2023-05-05T12:34:21.395Z,47.05
2023-05-05T12:36:48.031Z,45.92
2023-05-05T12:39:14.750Z,49.76
2023-05-05T12:41:41.390Z,47.57
2023-05-05T12:44:08.007Z,48.29
2023-05-05T12:46:47.190Z,47.62
2023-05-05T12:49:14.061Z,46.65
2023-05-05T12:51:55.559Z,45.26
2023-05-05T12:54:24.379Z,45.53
2023-05-05T12:56:51.311Z,47.30
2023-05-05T12:59:20.988Z,48.30
2023-05-05T13:01:55.056Z,47.62
2023-05-05T13:04:23.211Z,45.09
2023-05-05T13:06:54.052Z,47.67
2023-05-05T13:09:30.460Z,47.69
2023-05-05T13:11:57.884Z,46.38
2023-05-05T13:14:24.525Z,44.74
2023-05-05T13:16:51.303Z,44.64
2023-05-05T13:19:17.993Z,42.92
2023-05-05T13:21:44.625Z,43.63
2023-05-05T13:24:22.979Z,44.84
2023-05-05T13:26:55.901Z,43.86
2023-05-05T13:29:24.327Z,43.13
2023-05-05T13:31:54.018Z,42.11
2023-05-05T13:34:20.770Z,43.37
2023-05-05T13:36:47.449Z,43.36
2023-05-05T13:39:14.384Z,42.51
2023-05-05T13:41:41.048Z,44.21
2023-05-05T13:44:07.724Z,41.98
2023-05-05T13:46:34.560Z,41.95
2023-05-05T13:49:01.281Z,41.12
2023-05-05T13:51:27.909Z,44.53
2023-05-05T13:53:56.707Z,46.26
2023-05-05T13:56:26.205Z,44.11
2023-05-05T13:58:53.294Z,43.58
2023-05-05T14:01:20.237Z,44.50
2023-05-05T14:03:47.057Z,41.40
2023-05-05T14:06:13.722Z,41.60
2023-05-05T14:08:40.454Z,43.18
2023-05-05T14:11:07.136Z,45.73
2023-05-05T14:13:33.810Z,43.52
2023-05-05T14:16:00.597Z,44.50
2023-05-05T14:18:28.144Z,44.31
2023-05-05T14:20:54.879Z,43.95
2023-05-05T14:23:21.673Z,44.69
2023-05-05T14:25:48.387Z,44.47
2023-05-05T14:28:15.016Z,44.74
2023-05-05T14:30:42.085Z,42.75
2023-05-05T14:33:08.719Z,42.97
2023-05-05T14:35:35.400Z,43.45
2023-05-05T14:38:01.975Z,42.34
2023-05-05T14:40:30.320Z,43.50
2023-05-05T14:42:57.745Z,44.14
2023-05-05T14:45:24.555Z,45.23
2023-05-05T14:47:51.218Z,45.14
2023-05-05T14:50:17.878Z,45.55
2023-05-05T14:52:44.758Z,46.05
2023-05-05T14:55:11.750Z,45.05
2023-05-05T14:57:38.938Z,43.88
2023-05-05T15:00:07.098Z,44.24
2023-05-05T15:02:34.011Z,44.96
2023-05-05T15:05:00.880Z,45.16
2023-05-05T15:07:30.723Z,45.05
2023-05-05T15:09:57.512Z,45.49
2023-05-05T15:12:24.341Z,44.52
2023-05-05T15:14:51.001Z,44.77
2023-05-05T15:17:17.757Z,44.39
2023-05-05T15:19:44.450Z,44.64
2023-05-05T15:22:11.144Z,46.51
2023-05-05T15:24:38.062Z,44.57
2023-05-05T15:27:04.830Z,44.94
2023-05-05T15:29:31.643Z,44.66
2023-05-05T15:31:58.457Z,45.37
2023-05-05T15:34:26.209Z,43.89
2023-05-05T15:36:52.844Z,44.08
2023-05-05T15:39:19.667Z,44.04
2023-05-05T15:41:46.328Z,45.41
2023-05-05T15:44:12.940Z,46.22
2023-05-05T15:46:39.847Z,46.34
2023-05-05T15:49:06.672Z,46.06
2023-05-05T15:51:33.348Z,47.60
2023-05-05T15:54:00.353Z,47.11
2023-05-05T15:56:27.602Z,47.26
2023-05-05T15:58:54.413Z,46.92
2023-05-05T16:01:21.172Z,47.47
2023-05-05T16:03:47.894Z,45.95
2023-05-05T16:06:14.526Z,46.01
2023-05-05T16:08:41.228Z,48.46
2023-05-05T16:11:07.938Z,49.72
2023-05-05T16:13:34.683Z,48.83
2023-05-05T16:16:01.514Z,49.92
2023-05-05T16:18:28.217Z,48.94
2023-05-05T16:20:54.878Z,49.65
2023-05-05T16:23:21.597Z,48.96
2023-05-05T16:25:48.196Z,49.38
2023-05-05T16:28:14.773Z,51.13
2023-05-05T16:30:42.998Z,49.00
2023-05-05T16:33:09.930Z,49.18
2023-05-05T16:35:36.671Z,48.67
2023-05-05T16:38:03.340Z,48.80
2023-05-05T16:40:29.981Z,48.80
2023-05-05T16:42:56.576Z,51.20
2023-05-05T16:45:24.351Z,51.42
2023-05-05T16:47:51.374Z,51.48
2023-05-05T16:50:18.121Z,49.98
2023-05-05T16:52:44.711Z,49.24
2023-05-05T16:55:11.621Z,48.99
2023-05-05T16:57:38.509Z,49.95
2023-05-05T17:00:09.309Z,50.77
2023-05-05T17:02:36.214Z,50.55
2023-05-05T17:05:03.167Z,50.44
2023-05-05T17:07:29.913Z,50.92
2023-05-05T17:09:56.611Z,50.71
2023-05-05T17:12:23.329Z,51.37
2023-05-05T17:14:50.062Z,51.91
2023-05-05T17:17:16.981Z,53.39
2023-05-05T17:19:44.884Z,54.58
2023-05-05T17:22:11.528Z,54.42
2023-05-05T17:24:38.198Z,55.08
2023-05-05T17:27:04.904Z,54.88
2023-05-05T17:29:32.767Z,53.94
2023-05-05T17:31:59.454Z,54.03
2023-05-05T17:34:26.270Z,53.71
2023-05-05T17:36:52.912Z,54.20
2023-05-05T17:39:19.657Z,53.78
2023-05-05T17:41:46.448Z,53.87
2023-05-05T17:44:13.115Z,53.82
2023-05-05T17:46:40.398Z,54.39
2023-05-05T17:49:07.094Z,55.16
2023-05-05T17:51:33.741Z,55.57
2023-05-05T17:54:00.401Z,56.87
2023-05-05T17:56:27.048Z,56.98
2023-05-05T17:58:53.821Z,58.62
2023-05-05T18:01:24.185Z,61.95
2023-05-05T18:03:50.988Z,62.80
2023-05-05T18:06:17.829Z,62.37
2023-05-05T18:08:44.852Z,62.05
2023-05-05T18:11:11.565Z,61.64
2023-05-05T18:13:38.892Z,62.28
2023-05-05T18:16:06.192Z,62.16
2023-05-05T18:18:32.996Z,63.86
2023-05-05T18:20:59.687Z,64.16
2023-05-05T18:23:26.790Z,64.27
2023-05-05T18:25:53.461Z,63.32
2023-05-05T18:28:20.559Z,63.16
2023-05-05T18:30:47.263Z,63.69
2023-05-05T18:33:14.044Z,63.81
2023-05-05T18:35:40.960Z,64.14
2023-05-05T18:38:07.698Z,66.63
2023-05-05T18:40:34.386Z,66.47
2023-05-05T18:43:01.018Z,65.56
2023-05-05T18:45:27.790Z,65.91
2023-05-05T18:47:54.577Z,65.36
2023-05-05T18:50:21.317Z,66.01
2023-05-05T18:52:48.030Z,67.59
2023-05-05T18:55:14.749Z,69.64
2023-05-05T18:57:41.356Z,70.15
2023-05-05T19:00:09.194Z,72.77
2023-05-05T19:02:35.916Z,72.48
2023-05-05T19:05:03.790Z,73.05
2023-05-05T19:07:35.441Z,73.36
2023-05-05T19:10:03.928Z,73.00
2023-05-05T19:12:30.746Z,74.69
2023-05-05T19:14:57.461Z,75.13
2023-05-05T19:17:24.348Z,72.46
2023-05-05T19:19:51.107Z,71.66
2023-05-05T19:22:17.836Z,70.58
2023-05-05T19:24:44.515Z,71.63
2023-05-05T19:27:15.515Z,75.33
2023-05-05T19:29:43.191Z,77.03
2023-05-05T19:32:09.927Z,76.61
2023-05-05T19:34:36.664Z,75.54
2023-05-05T19:37:03.322Z,77.96
2023-05-05T19:39:29.964Z,80.51
2023-05-05T19:41:56.631Z,80.63
2023-05-05T19:44:23.851Z,80.88
2023-05-05T19:46:50.693Z,82.10
2023-05-05T19:49:17.398Z,80.71
2023-05-05T19:51:46.349Z,79.01
2023-05-05T19:54:13.196Z,80.09
2023-05-05T19:56:40.485Z,79.71
2023-05-05T19:59:07.222Z,79.36
2023-05-05T20:01:34.962Z,75.90
2023-05-05T20:04:03.170Z,75.92
2023-05-05T20:06:29.811Z,78.12
2023-05-05T20:08:56.441Z,77.72
2023-05-05T20:11:23.130Z,78.24
2023-05-05T20:13:49.965Z,80.44
2023-05-05T20:16:16.703Z,81.81
2023-05-05T20:18:43.724Z,81.27
2023-05-05T20:21:10.383Z,83.55
2023-05-05T20:23:37.303Z,84.01
2023-05-05T20:26:03.928Z,82.76
2023-05-05T20:28:31.698Z,82.66
2023-05-05T20:30:58.473Z,83.34
2023-05-05T20:33:25.362Z,83.56
2023-05-05T20:35:52.071Z,85.51
2023-05-05T20:38:18.707Z,87.05
2023-05-05T20:40:45.686Z,86.44
2023-05-05T20:43:12.325Z,85.57
2023-05-05T20:45:39.020Z,84.49
2023-05-05T20:48:07.429Z,82.08
2023-05-05T20:50:34.155Z,81.38
2023-05-05T20:53:00.836Z,83.78
2023-05-05T20:55:27.513Z,84.39
2023-05-05T20:57:54.725Z,85.70
2023-05-05T21:00:21.525Z,86.36
2023-05-05T21:02:48.279Z,85.19
2023-05-05T21:05:15.006Z,83.72
2023-05-05T21:07:41.681Z,84.69
2023-05-05T21:10:08.970Z,86.48
2023-05-05T21:12:35.992Z,84.48
2023-05-05T21:15:02.796Z,86.01
2023-05-05T21:17:29.555Z,84.11
2023-05-05T21:19:56.919Z,86.34
2023-05-05T21:22:23.653Z,85.70
2023-05-05T21:24:50.333Z,83.52
2023-05-05T21:27:17.038Z,84.48
2023-05-05T21:29:43.716Z,85.34
2023-05-05T21:32:11.167Z,87.06
2023-05-05T21:34:38.286Z,87.44
2023-05-05T21:37:05.189Z,86.80
2023-05-05T21:39:33.116Z,85.15
2023-05-05T21:42:00.548Z,82.11
2023-05-05T21:44:28.292Z,82.28
2023-05-05T21:46:55.463Z,81.83
2023-05-05T21:49:22.246Z,80.84
2023-05-05T21:51:48.907Z,81.34
2023-05-05T21:54:15.877Z,79.63
2023-05-05T21:56:42.737Z,80.58
2023-05-05T21:59:09.441Z,81.20
2023-05-05T22:01:36.917Z,80.17
2023-05-05T22:04:03.930Z,78.75
2023-05-05T22:06:30.660Z,78.45
2023-05-05T22:08:57.288Z,79.51
2023-05-05T22:11:24.132Z,79.21
2023-05-05T22:13:50.788Z,80.97
2023-05-05T22:16:17.749Z,81.28
2023-05-05T22:18:44.492Z,81.51
2023-05-05T22:21:11.097Z,82.69
2023-05-05T22:23:39.065Z,83.00
2023-05-05T22:26:05.767Z,84.05
2023-05-05T22:28:32.532Z,83.55
2023-05-05T22:30:59.184Z,82.99
2023-05-05T22:33:25.897Z,80.82
2023-05-05T22:35:53.275Z,81.45
2023-05-05T22:38:19.954Z,79.95
2023-05-05T22:40:46.620Z,79.68
2023-05-05T22:43:13.204Z,82.47
2023-05-05T22:45:39.833Z,84.71
2023-05-05T22:48:06.529Z,84.35
2023-05-05T22:50:33.257Z,82.31
2023-05-05T22:52:59.983Z,81.52
2023-05-05T22:55:27.333Z,80.26
2023-05-05T22:57:54.021Z,80.15
2023-05-05T23:00:20.621Z,80.16
2023-05-05T23:02:47.467Z,79.92
2023-05-05T23:05:14.150Z,79.85
2023-05-05T23:07:40.963Z,80.42
2023-05-05T23:10:08.042Z,79.01
2023-05-05T23:12:34.757Z,78.41
2023-05-05T23:15:01.394Z,77.37
2023-05-05T23:17:28.069Z,78.50
2023-05-05T23:19:54.880Z,79.00
2023-05-05T23:22:21.549Z,77.39
2023-05-05T23:24:48.175Z,77.11
2023-05-05T23:27:14.886Z,77.85
2023-05-05T23:29:41.649Z,78.81
2023-05-05T23:32:08.356Z,77.36
2023-05-05T23:34:35.038Z,77.30
2023-05-05T23:37:02.510Z,76.32
2023-05-05T23:39:30.615Z,76.05
2023-05-05T23:41:57.590Z,76.84
2023-05-05T23:44:24.242Z,77.60
2023-05-05T23:46:51.097Z,76.58
2023-05-05T23:49:17.806Z,76.56
2023-05-05T23:51:44.528Z,76.25
2023-05-05T23:54:11.180Z,75.90
2023-05-05T23:56:37.934Z,75.38
2023-05-05T23:59:05.504Z,74.20
